Time;durP1;ratioP1;P1;durP2;ratioP2;P2;SDS_P1;SDS_P2;PMS_P1;PMS_P2;Temp;Humidity;BMP_temperature;BMP_pressure;BME280_temperature;BME280_humidity;BME280_pressure;Samples;Min_cycle;Max_cycle;Signal;HPM_P1;HPM_P2
2023/12/07 00:01:40;;;;;;;26.65;17.45;;;3.50;99.90;;;;;;5054956;28;20120;-65
2023/12/07 00:04:06;;;;;;;23.88;17.52;;;3.50;99.90;;;;;;5054535;28;20031;-65
2023/12/07 00:06:31;;;;;;;26.48;16.92;;;3.50;99.90;;;;;;5053449;28;20033;-65
2023/12/07 00:08:58;;;;;;;25.95;16.48;;;3.50;99.90;;;;;;5054909;28;20120;-66
2023/12/07 00:11:24;;;;;;;23.40;16.83;;;3.50;99.90;;;;;;5054363;28;20035;-66
2023/12/07 00:13:49;;;;;;;23.13;16.98;;;3.50;99.90;;;;;;5054811;28;20104;-66
2023/12/07 00:16:15;;;;;;;22.63;15.88;;;3.50;99.90;;;;;;5054152;28;20536;-67
2023/12/07 00:18:40;;;;;;;22.40;15.95;;;3.50;99.90;;;;;;5054350;28;20105;-65
2023/12/07 00:21:08;;;;;;;22.20;15.98;;;3.50;99.90;;;;;;5054266;28;20029;-65
2023/12/07 00:23:34;;;;;;;19.92;15.07;;;3.50;99.90;;;;;;5054538;28;20025;-65
2023/12/07 00:25:59;;;;;;;21.90;15.45;;;3.50;99.90;;;;;;5054600;28;20485;-66
2023/12/07 00:28:25;;;;;;;21.98;15.73;;;3.50;99.90;;;;;;5053948;28;20032;-66
2023/12/07 00:30:51;;;;;;;20.27;15.07;;;3.50;99.90;;;;;;5054478;28;20025;-66
2023/12/07 00:33:17;;;;;;;20.15;15.45;;;3.50;99.90;;;;;;5054043;28;20424;-65
2023/12/07 00:35:42;;;;;;;19.30;14.55;;;3.50;99.90;;;;;;5054555;28;20021;-66
2023/12/07 00:38:08;;;;;;;22.17;15.20;;;3.50;99.90;;;;;;5053885;28;20025;-66
2023/12/07 00:40:36;;;;;;;20.13;15.38;;;3.50;99.90;;;;;;5054389;28;20036;-66
2023/12/07 00:43:03;;;;;;;21.33;15.35;;;3.50;99.90;;;;;;5054120;28;20064;-66
2023/12/07 00:45:28;;;;;;;22.13;15.40;;;3.50;99.90;;;;;;5053903;28;20076;-66
2023/12/07 00:47:54;;;;;;;20.25;14.80;;;3.40;99.90;;;;;;5053961;28;20466;-66
2023/12/07 00:50:20;;;;;;;21.42;15.68;;;3.50;99.90;;;;;;5054014;28;20032;-66
2023/12/07 00:52:45;;;;;;;20.15;14.80;;;3.40;99.90;;;;;;5053799;28;20181;-66
2023/12/07 00:55:11;;;;;;;21.60;15.93;;;3.50;99.90;;;;;;5053706;28;20426;-65
2023/12/07 00:57:36;;;;;;;18.58;14.73;;;3.40;99.90;;;;;;5053899;28;20040;-65
2023/12/07 01:00:03;;;;;;;20.67;15.45;;;3.40;99.90;;;;;;5053935;28;20065;-66
2023/12/07 01:02:29;;;;;;;20.80;15.88;;;3.40;99.90;;;;;;5052354;28;20045;-66
2023/12/07 01:04:55;;;;;;;18.67;14.60;;;3.40;99.90;;;;;;5053488;28;20032;-65
2023/12/07 01:07:21;;;;;;;19.17;14.65;;;3.40;99.90;;;;;;5053379;28;20459;-66
2023/12/07 01:09:46;;;;;;;21.27;14.73;;;3.40;99.90;;;;;;5053750;28;20025;-66
2023/12/07 01:12:12;;;;;;;20.45;15.02;;;3.40;99.90;;;;;;5053382;28;20029;-66
2023/12/07 01:14:38;;;;;;;20.13;14.77;;;3.40;99.90;;;;;;5052372;28;20021;-66
2023/12/07 01:17:04;;;;;;;20.20;15.85;;;3.40;99.90;;;;;;5052279;28;20516;-66
2023/12/07 01:19:29;;;;;;;21.50;15.05;;;3.40;99.90;;;;;;5053087;28;20493;-66
2023/12/07 01:21:55;;;;;;;19.83;15.65;;;3.40;99.90;;;;;;5053400;28;20032;-66
2023/12/07 01:24:20;;;;;;;18.77;13.93;;;3.40;99.90;;;;;;5053336;28;20032;-66
2023/12/07 01:26:46;;;;;;;20.55;15.45;;;3.30;99.90;;;;;;5053403;28;20025;-66
2023/12/07 01:29:13;;;;;;;21.00;15.32;;;3.30;99.90;;;;;;5052770;28;20033;-66
2023/12/07 01:31:40;;;;;;;19.88;14.73;;;3.30;99.90;;;;;;5053792;28;20028;-66
2023/12/07 01:34:05;;;;;;;18.17;14.52;;;3.30;99.90;;;;;;5053705;28;20029;-66
2023/12/07 01:36:31;;;;;;;21.35;13.95;;;3.30;99.90;;;;;;5052985;28;20037;-66
2023/12/07 01:38:57;;;;;;;20.58;14.40;;;3.30;99.90;;;;;;5053144;28;20108;-66
2023/12/07 01:41:23;;;;;;;16.95;12.93;;;3.30;99.90;;;;;;5052492;28;20082;-66
2023/12/07 01:43:48;;;;;;;21.02;15.05;;;3.30;99.90;;;;;;5053190;28;20068;-66
2023/12/07 01:46:17;;;;;;;20.42;13.77;;;3.30;99.90;;;;;;5052628;28;20072;-66
2023/12/07 01:48:43;;;;;;;21.40;14.95;;;3.30;99.90;;;;;;5053202;28;20025;-65
2023/12/07 01:51:10;;;;;;;19.17;14.38;;;3.30;99.90;;;;;;5052463;28;20028;-65
2023/12/07 01:53:39;;;;;;;17.55;14.40;;;3.30;99.90;;;;;;5053081;28;20051;-65
2023/12/07 01:56:05;;;;;;;19.70;14.50;;;3.20;99.90;;;;;;5052937;28;20620;-64
2023/12/07 01:58:31;;;;;;;19.35;14.32;;;3.20;99.90;;;;;;5052451;28;20068;-65
2023/12/07 02:00:57;;;;;;;18.50;14.50;;;3.20;99.90;;;;;;5052668;28;20129;-65
2023/12/07 02:03:23;;;;;;;20.85;14.52;;;3.20;99.90;;;;;;5052177;28;20385;-65
2023/12/07 02:05:50;;;;;;;17.55;13.70;;;3.20;99.90;;;;;;5053099;28;20377;-66
2023/12/07 02:08:16;;;;;;;18.65;14.30;;;3.20;99.90;;;;;;5052016;28;20028;-67
2023/12/07 02:10:42;;;;;;;19.77;14.73;;;3.20;99.90;;;;;;5052698;28;20029;-65
2023/12/07 02:13:08;;;;;;;19.20;14.82;;;3.20;99.90;;;;;;5052474;28;20036;-65
2023/12/07 02:15:34;;;;;;;20.30;14.63;;;3.10;99.90;;;;;;5052250;28;20082;-65
2023/12/07 02:18:06;;;;;;;20.42;14.25;;;3.10;99.90;;;;;;5052569;28;20033;-65
2023/12/07 02:21:02;;;;;;;17.92;13.95;;;3.10;99.90;;;;;;5051777;28;20394;-64
2023/12/07 02:23:32;;;;;;;19.40;14.18;;;3.10;99.90;;;;;;5052180;28;20508;-66
2023/12/07 02:26:03;;;;;;;19.02;14.88;;;3.10;99.90;;;;;;5052495;28;20033;-65
2023/12/07 02:28:29;;;;;;;18.23;13.82;;;3.10;99.90;;;;;;5052205;28;20023;-65
2023/12/07 02:30:55;;;;;;;20.35;14.93;;;3.10;99.90;;;;;;5058327;28;20107;-66
2023/12/07 02:33:21;;;;;;;17.80;13.73;;;3.10;99.90;;;;;;5058764;28;20028;-66
2023/12/07 02:35:47;;;;;;;18.52;13.80;;;3.10;99.90;;;;;;5059169;28;20025;-65
2023/12/07 02:38:13;;;;;;;20.42;15.27;;;3.10;99.90;;;;;;5058827;28;20100;-65
2023/12/07 02:40:40;;;;;;;19.25;14.13;;;3.10;99.90;;;;;;5059156;28;20025;-65
2023/12/07 02:43:07;;;;;;;21.48;15.23;;;3.10;99.90;;;;;;5058636;28;20500;-64
2023/12/07 02:45:33;;;;;;;21.13;15.02;;;3.10;99.90;;;;;;5058561;28;20025;-65
2023/12/07 02:47:59;;;;;;;16.83;13.75;;;3.10;99.90;;;;;;5059012;28;20047;-65
2023/12/07 02:50:25;;;;;;;17.83;13.57;;;3.10;99.90;;;;;;5058713;28;20446;-66
2023/12/07 02:52:50;;;;;;;20.23;15.48;;;3.10;99.90;;;;;;5058675;28;20040;-66
2023/12/07 02:55:16;;;;;;;21.05;14.93;;;3.10;99.90;;;;;;5058650;28;20099;-65
2023/12/07 02:57:42;;;;;;;19.30;14.65;;;3.10;99.90;;;;;;5058849;28;20033;-65
2023/12/07 03:00:08;;;;;;;20.10;15.00;;;3.00;99.90;;;;;;5058976;28;20373;-67
2023/12/07 03:02:39;;;;;;;19.58;14.82;;;3.10;99.90;;;;;;5058597;28;20545;-65
2023/12/07 03:05:06;;;;;;;18.48;13.77;;;3.10;99.90;;;;;;5059063;28;20040;-65
2023/12/07 03:07:32;;;;;;;19.02;14.88;;;3.10;99.90;;;;;;5058483;28;20075;-66
2023/12/07 03:09:58;;;;;;;17.50;14.23;;;3.00;99.90;;;;;;5058878;28;20024;-65
2023/12/07 03:12:23;;;;;;;18.48;14.52;;;3.00;99.90;;;;;;5058541;28;20036;-65
2023/12/07 03:14:49;;;;;;;18.50;14.18;;;3.00;99.90;;;;;;5058781;28;20477;-65
2023/12/07 03:17:15;;;;;;;19.58;14.80;;;3.00;99.90;;;;;;5057686;28;20485;-65
2023/12/07 03:19:41;;;;;;;19.30;14.10;;;3.00;99.90;;;;;;5058952;28;20029;-65
2023/12/07 03:22:08;;;;;;;21.65;15.15;;;3.00;99.90;;;;;;5058643;28;20033;-65
2023/12/07 03:24:38;;;;;;;18.33;14.20;;;3.00;99.90;;;;;;5058370;28;20063;-65
2023/12/07 03:27:04;;;;;;;20.50;14.07;;;3.00;99.90;;;;;;5058766;28;20021;-66
2023/12/07 03:29:31;;;;;;;18.98;13.93;;;3.10;99.90;;;;;;5058416;28;20056;-66
2023/12/07 03:31:57;;;;;;;20.08;14.57;;;3.00;99.90;;;;;;5058662;28;20033;-66
2023/12/07 03:34:23;;;;;;;19.55;14.27;;;3.00;99.90;;;;;;5058234;28;20029;-66
2023/12/07 03:36:49;;;;;;;18.48;13.98;;;3.10;99.90;;;;;;5058649;28;20093;-66
2023/12/07 03:39:15;;;;;;;20.08;14.13;;;3.10;99.90;;;;;;5058599;28;20043;-65
2023/12/07 03:41:41;;;;;;;20.25;14.40;;;3.10;99.90;;;;;;5056013;28;20029;-65
2023/12/07 03:44:07;;;;;;;19.38;14.43;;;3.10;99.90;;;;;;5055445;28;20071;-65
2023/12/07 03:46:33;;;;;;;21.38;14.18;;;3.10;99.90;;;;;;5054645;28;20083;-64
2023/12/07 03:48:59;;;;;;;18.90;13.90;;;3.10;99.90;;;;;;5055406;28;20056;-65
2023/12/07 03:51:26;;;;;;;17.58;13.35;;;3.10;99.90;;;;;;5054912;28;20032;-67
2023/12/07 03:53:52;;;;;;;17.27;13.05;;;3.10;99.90;;;;;;5055294;28;20036;-66
2023/12/07 03:56:29;;;;;;;18.58;13.88;;;3.10;99.90;;;;;;5055276;28;20029;-66
2023/12/07 03:58:55;;;;;;;20.38;14.73;;;3.10;99.90;;;;;;5055058;28;20029;-66
2023/12/07 04:01:24;;;;;;;19.33;14.15;;;3.10;99.90;;;;;;5054220;28;20120;-66
2023/12/07 04:03:55;;;;;;;20.42;14.13;;;3.10;99.90;;;;;;5055268;28;20044;-66
2023/12/07 04:06:21;;;;;;;18.47;14.37;;;3.10;99.90;;;;;;5057184;28;20055;-66
2023/12/07 04:08:47;;;;;;;18.70;14.13;;;3.10;99.90;;;;;;5057876;28;20025;-66
2023/12/07 04:11:13;;;;;;;20.42;14.15;;;3.10;99.90;;;;;;5057802;28;20025;-65
2023/12/07 04:13:39;;;;;;;19.00;14.65;;;3.10;99.90;;;;;;5055060;28;20445;-66
2023/12/07 04:16:05;;;;;;;19.73;15.02;;;3.20;99.90;;;;;;5054812;28;20096;-65
2023/12/07 04:18:31;;;;;;;19.40;14.45;;;3.10;99.90;;;;;;5054355;28;20135;-65
2023/12/07 04:20:57;;;;;;;20.20;14.38;;;3.20;99.90;;;;;;5054745;28;20025;-66
2023/12/07 04:23:22;;;;;;;19.33;14.80;;;3.20;99.90;;;;;;5054191;28;20056;-66
2023/12/07 04:25:48;;;;;;;20.60;15.10;;;3.20;99.90;;;;;;5054664;28;20104;-66
2023/12/07 04:28:13;;;;;;;21.88;15.38;;;3.20;99.90;;;;;;5054256;28;20385;-66
2023/12/07 04:30:39;;;;;;;19.92;15.25;;;3.20;99.90;;;;;;5053849;28;20025;-66
2023/12/07 04:33:05;;;;;;;19.48;14.70;;;3.20;99.90;;;;;;5054512;28;20028;-66
2023/12/07 04:35:31;;;;;;;18.23;13.45;;;3.20;99.90;;;;;;5053987;28;20159;-65
2023/12/07 04:37:56;;;;;;;22.17;15.13;;;3.20;99.90;;;;;;5054406;28;20036;-65
2023/12/07 04:40:24;;;;;;;21.15;14.95;;;3.20;99.90;;;;;;5054519;28;20124;-68
2023/12/07 04:42:49;;;;;;;18.65;13.90;;;3.20;99.90;;;;;;5054334;28;20037;-66
2023/12/07 04:45:15;;;;;;;19.08;13.98;;;3.20;99.90;;;;;;5053981;28;20437;-65
2023/12/07 04:47:41;;;;;;;19.17;14.05;;;3.20;99.90;;;;;;5053822;28;20025;-66
2023/12/07 04:50:07;;;;;;;22.13;13.48;;;3.20;99.90;;;;;;5054075;28;20035;-66
2023/12/07 04:52:33;;;;;;;19.52;13.60;;;3.20;99.90;;;;;;5053224;28;20370;-66
2023/12/07 04:54:59;;;;;;;19.92;14.63;;;3.30;99.90;;;;;;5053820;28;20036;-66
2023/12/07 04:57:25;;;;;;;18.00;14.23;;;3.20;99.90;;;;;;5053677;28;20466;-65
2023/12/07 04:59:51;;;;;;;18.77;13.73;;;3.20;99.90;;;;;;5053953;28;20025;-66
2023/12/07 05:02:17;;;;;;;19.08;14.90;;;3.20;99.90;;;;;;5053895;28;20041;-66
2023/12/07 05:04:44;;;;;;;19.73;13.55;;;3.30;99.90;;;;;;5054707;28;20021;-66
2023/12/07 05:07:14;;;;;;;17.83;13.70;;;3.30;99.90;;;;;;5056006;28;20036;-66
2023/12/07 05:09:40;;;;;;;19.52;13.98;;;3.20;99.90;;;;;;5055676;28;20370;-66
2023/12/07 05:12:06;;;;;;;19.27;13.68;;;3.30;99.90;;;;;;5056338;28;20093;-66
2023/12/07 05:14:32;;;;;;;19.58;12.82;;;3.30;99.90;;;;;;5054730;28;20040;-66
2023/12/07 05:16:58;;;;;;;23.40;13.90;;;3.30;99.90;;;;;;5055176;28;20082;-66
2023/12/07 05:19:25;;;;;;;15.82;12.70;;;3.20;99.90;;;;;;5056256;28;20026;-65
2023/12/07 05:21:51;;;;;;;18.65;14.00;;;3.30;99.90;;;;;;5055082;28;20037;-65
2023/12/07 05:24:18;;;;;;;18.30;13.68;;;3.30;99.90;;;;;;5054063;28;20458;-65
2023/12/07 05:26:46;;;;;;;19.00;13.25;;;3.30;99.90;;;;;;5053179;28;20029;-65
2023/12/07 05:29:12;;;;;;;20.05;14.07;;;3.30;99.90;;;;;;5053775;28;20029;-65
2023/12/07 05:31:38;;;;;;;19.80;13.60;;;3.30;99.90;;;;;;5051995;28;20430;-66
2023/12/07 05:34:04;;;;;;;20.75;14.18;;;3.30;99.90;;;;;;5053516;28;20432;-65
2023/12/07 05:36:30;;;;;;;20.35;13.18;;;3.30;99.90;;;;;;5053088;28;20021;-65
2023/12/07 05:38:56;;;;;;;20.27;13.98;;;3.30;99.90;;;;;;5053174;28;20075;-66
2023/12/07 05:41:22;;;;;;;18.70;14.25;;;3.30;99.90;;;;;;5053015;28;20123;-64
2023/12/07 05:43:48;;;;;;;18.92;13.38;;;3.30;99.90;;;;;;5052890;28;20029;-66
2023/12/07 05:46:13;;;;;;;16.85;12.70;;;3.30;99.90;;;;;;5053186;28;20104;-65
2023/12/07 05:48:39;;;;;;;20.10;14.57;;;3.30;99.90;;;;;;5052907;28;20418;-67
2023/12/07 05:51:05;;;;;;;20.88;14.75;;;3.30;99.90;;;;;;5053252;28;20052;-65
2023/12/07 05:53:34;;;;;;;19.17;14.13;;;3.30;99.90;;;;;;5052643;28;20359;-67
2023/12/07 05:55:59;;;;;;;18.90;12.90;;;3.30;99.90;;;;;;5053250;28;20407;-66
2023/12/07 05:58:25;;;;;;;19.90;13.98;;;3.30;99.90;;;;;;5052704;28;20036;-65
2023/12/07 06:00:50;;;;;;;17.27;13.40;;;3.30;99.90;;;;;;5052184;28;20029;-65
2023/12/07 06:03:16;;;;;;;20.88;14.50;;;3.30;99.90;;;;;;5052489;28;20028;-65
2023/12/07 06:05:43;;;;;;;18.30;14.18;;;3.30;99.90;;;;;;5051942;28;20152;-66
2023/12/07 06:08:08;;;;;;;20.52;15.02;;;3.30;99.90;;;;;;5052397;28;20090;-65
2023/12/07 06:10:35;;;;;;;20.95;15.48;;;3.30;99.90;;;;;;5052433;28;20032;-66
2023/12/07 06:13:01;;;;;;;20.42;15.30;;;3.30;99.90;;;;;;5052290;28;20037;-66
2023/12/07 06:15:27;;;;;;;22.77;15.85;;;3.30;99.90;;;;;;5052717;28;20031;-66
2023/12/07 06:17:54;;;;;;;22.95;15.55;;;3.30;99.90;;;;;;5052069;28;20433;-66
2023/12/07 06:20:20;;;;;;;17.85;13.98;;;3.30;99.90;;;;;;5052527;28;20377;-66
2023/12/07 06:22:45;;;;;;;22.75;16.25;;;3.30;99.90;;;;;;5051786;28;20033;-66
2023/12/07 06:25:11;;;;;;;21.70;15.75;;;3.30;99.90;;;;;;5052276;28;20031;-65
2023/12/07 06:27:37;;;;;;;23.00;15.90;;;3.30;99.90;;;;;;5052520;28;20108;-66
2023/12/07 06:30:05;;;;;;;21.70;15.57;;;3.30;99.90;;;;;;5052253;28;20021;-65
2023/12/07 06:32:31;;;;;;;22.92;15.93;;;3.30;99.90;;;;;;5052222;28;20091;-66
2023/12/07 06:34:57;;;;;;;20.42;14.98;;;3.30;99.90;;;;;;5052632;28;20040;-66
2023/12/07 06:37:23;;;;;;;19.95;15.13;;;3.30;99.90;;;;;;5052332;28;20029;-66
2023/12/07 06:39:49;;;;;;;23.08;15.90;;;3.30;99.90;;;;;;5052147;28;20025;-66
2023/12/07 06:42:15;;;;;;;22.48;16.05;;;3.30;99.90;;;;;;5051007;28;20124;-66
2023/12/07 06:44:42;;;;;;;22.75;16.45;;;3.30;99.90;;;;;;5051986;28;20029;-66
2023/12/07 06:47:09;;;;;;;23.33;17.13;;;3.30;99.90;;;;;;5052758;28;20104;-66
2023/12/07 06:49:35;;;;;;;25.20;17.60;;;3.30;99.90;;;;;;5051879;28;20021;-66
2023/12/07 06:52:01;;;;;;;26.70;17.50;;;3.20;99.90;;;;;;5052456;28;20440;-66
2023/12/07 06:54:27;;;;;;;23.55;16.58;;;3.20;99.90;;;;;;5052369;28;20077;-67
2023/12/07 06:56:53;;;;;;;24.55;17.83;;;3.20;99.90;;;;;;5051832;28;20046;-65
2023/12/07 06:59:19;;;;;;;25.48;17.73;;;3.20;99.90;;;;;;5051775;28;20461;-65
2023/12/07 07:01:45;;;;;;;22.77;16.23;;;3.20;99.90;;;;;;5051390;28;20122;-65
2023/12/07 07:04:11;;;;;;;23.80;17.15;;;3.20;99.90;;;;;;5052384;28;20470;-65
2023/12/07 07:06:36;;;;;;;23.35;14.90;;;3.20;99.90;;;;;;5051736;28;20433;-66
2023/12/07 07:09:04;;;;;;;22.48;16.05;;;3.20;99.90;;;;;;5052403;28;20032;-66
2023/12/07 07:11:30;;;;;;;21.90;16.08;;;3.20;99.90;;;;;;5050588;28;20072;-66
2023/12/07 07:13:56;;;;;;;21.08;15.40;;;3.20;99.90;;;;;;5051450;28;20025;-66
2023/12/07 07:16:21;;;;;;;23.83;15.45;;;3.20;99.90;;;;;;5053633;28;20055;-66
2023/12/07 07:18:47;;;;;;;21.20;14.77;;;3.30;99.90;;;;;;5043025;28;20087;-66
2023/12/07 07:21:13;;;;;;;18.95;14.52;;;3.30;99.90;;;;;;5035362;28;20102;-65
2023/12/07 07:23:38;;;;;;;20.58;14.57;;;3.30;99.90;;;;;;5035461;28;20021;-67
2023/12/07 07:26:04;;;;;;;18.42;13.45;;;3.30;99.90;;;;;;5035703;28;20104;-67
2023/12/07 07:28:29;;;;;;;20.10;14.02;;;3.30;99.90;;;;;;5041711;28;20028;-67
2023/12/07 07:30:55;;;;;;;23.13;14.68;;;3.30;99.90;;;;;;5040177;28;20392;-65
2023/12/07 07:33:21;;;;;;;20.65;14.68;;;3.30;99.90;;;;;;5035756;28;20057;-65
2023/12/07 07:35:47;;;;;;;20.45;13.82;;;3.30;99.90;;;;;;5035106;28;20026;-66
2023/12/07 07:38:12;;;;;;;20.05;14.20;;;3.30;99.90;;;;;;5046268;28;20029;-65
2023/12/07 07:40:38;;;;;;;20.98;14.75;;;3.30;99.90;;;;;;5048920;28;20073;-66
2023/12/07 07:43:03;;;;;;;21.33;14.48;;;3.40;99.90;;;;;;5052249;28;20033;-66
2023/12/07 07:45:29;;;;;;;20.52;14.40;;;3.40;99.90;;;;;;5053719;28;20025;-66
2023/12/07 07:47:55;;;;;;;22.90;15.77;;;3.40;99.90;;;;;;5053128;28;20029;-65
2023/12/07 07:50:20;;;;;;;21.75;14.43;;;3.40;99.90;;;;;;5051772;28;20025;-66
2023/12/07 07:52:46;;;;;;;22.65;15.65;;;3.40;99.90;;;;;;5051443;28;20029;-65
2023/12/07 07:55:12;;;;;;;19.23;13.68;;;3.50;99.90;;;;;;5049947;28;20065;-65
2023/12/07 07:57:37;;;;;;;20.77;14.77;;;3.50;99.90;;;;;;5053224;28;20021;-66
2023/12/07 08:00:08;;;;;;;20.45;15.23;;;3.50;99.90;;;;;;5053669;28;20028;-66
2023/12/07 08:02:35;;;;;;;23.83;16.17;;;3.50;99.90;;;;;;5050375;28;20052;-64
2023/12/07 08:05:00;;;;;;;21.10;15.95;;;3.50;99.90;;;;;;5040788;28;20351;-64
2023/12/07 08:07:26;;;;;;;22.17;15.73;;;3.50;99.90;;;;;;5051391;28;20099;-64
2023/12/07 08:09:52;;;;;;;22.40;15.70;;;3.50;99.90;;;;;;5053312;28;20060;-65
2023/12/07 08:12:18;;;;;;;25.40;16.25;;;3.50;99.90;;;;;;5045685;28;20127;-65
2023/12/07 08:14:45;;;;;;;27.30;17.98;;;3.50;99.90;;;;;;5049005;28;20017;-65
2023/12/07 08:17:11;;;;;;;22.88;16.20;;;3.50;99.90;;;;;;5050325;28;20453;-65
2023/12/07 08:19:40;;;;;;;24.42;16.08;;;3.50;99.90;;;;;;5049147;28;20036;-66
2023/12/07 08:22:05;;;;;;;25.27;17.17;;;3.50;99.90;;;;;;5050288;28;20025;-65
2023/12/07 08:24:31;;;;;;;23.05;17.27;;;3.50;99.90;;;;;;5052446;28;20036;-65
2023/12/07 08:26:57;;;;;;;24.48;16.42;;;3.60;99.90;;;;;;5052943;28;20025;-63
2023/12/07 08:29:22;;;;;;;22.27;16.63;;;3.60;99.90;;;;;;5053754;28;20100;-64
2023/12/07 08:31:48;;;;;;;23.60;16.38;;;3.60;99.90;;;;;;5052641;28;20059;-64
2023/12/07 08:34:14;;;;;;;25.23;18.05;;;3.60;99.90;;;;;;5053842;28;20075;-64
2023/12/07 08:36:39;;;;;;;23.55;17.08;;;3.60;99.90;;;;;;5053550;28;20083;-66
2023/12/07 08:39:09;;;;;;;23.55;17.48;;;3.60;99.90;;;;;;5054375;28;20025;-64
2023/12/07 08:41:35;;;;;;;23.48;16.58;;;3.60;99.90;;;;;;5055946;28;20055;-66
2023/12/07 08:44:01;;;;;;;25.00;17.38;;;3.70;99.90;;;;;;5056596;28;20096;-64
2023/12/07 08:46:27;;;;;;;22.95;16.17;;;3.70;99.90;;;;;;5058998;28;20036;-63
2023/12/07 08:48:53;;;;;;;24.55;17.05;;;3.70;99.90;;;;;;5054882;28;20037;-65
2023/12/07 08:51:19;;;;;;;23.52;16.02;;;3.80;99.90;;;;;;5050005;28;20025;-63
2023/12/07 08:53:45;;;;;;;24.13;17.13;;;3.80;99.90;;;;;;5033810;28;20425;-64
2023/12/07 08:56:12;;;;;;;23.63;16.50;;;3.90;99.90;;;;;;5036834;28;20030;-64
2023/12/07 08:58:38;;;;;;;27.73;17.35;;;3.90;99.90;;;;;;5034889;28;20026;-64
2023/12/07 09:01:05;;;;;;;25.10;17.40;;;3.90;99.90;;;;;;5053521;28;20045;-65
2023/12/07 09:03:31;;;;;;;26.65;16.15;;;4.00;99.90;;;;;;5051858;28;20041;-68
2023/12/07 09:05:57;;;;;;;27.90;17.90;;;4.00;99.90;;;;;;5033619;28;20026;-63
2023/12/07 09:08:23;;;;;;;22.73;16.27;;;4.00;99.90;;;;;;5048440;28;20055;-63
2023/12/07 09:10:51;;;;;;;22.33;15.88;;;4.00;99.90;;;;;;5052694;28;20031;-65
2023/12/07 09:13:18;;;;;;;24.92;17.63;;;4.00;99.90;;;;;;5053618;28;20100;-63
2023/12/07 09:15:43;;;;;;;23.77;16.00;;;4.10;99.90;;;;;;5053250;28;20057;-64
2023/12/07 09:18:10;;;;;;;25.17;16.55;;;4.10;99.90;;;;;;5053763;28;20036;-64
2023/12/07 09:20:37;;;;;;;23.52;16.40;;;4.10;99.90;;;;;;5052946;28;20029;-63
2023/12/07 09:23:03;;;;;;;23.67;16.48;;;4.20;99.90;;;;;;5053216;28;20535;-63
2023/12/07 09:25:30;;;;;;;21.35;15.45;;;4.20;99.90;;;;;;5053560;28;20032;-64
2023/12/07 09:27:56;;;;;;;22.65;15.60;;;4.20;99.90;;;;;;5053019;28;20036;-63
2023/12/07 09:30:22;;;;;;;22.52;16.33;;;4.30;99.90;;;;;;5053438;28;20056;-64
2023/12/07 09:32:47;;;;;;;24.15;16.35;;;4.30;99.90;;;;;;5053052;28;20457;-64
2023/12/07 09:35:19;;;;;;;20.92;15.20;;;4.30;99.90;;;;;;5053363;28;20082;-63
2023/12/07 09:37:51;;;;;;;21.77;15.65;;;4.30;99.90;;;;;;5052768;28;20072;-74
2023/12/07 09:40:18;;;;;;;22.33;15.23;;;4.30;99.90;;;;;;5052970;28;20496;-64
2023/12/07 09:42:45;;;;;;;20.38;14.77;;;4.40;99.90;;;;;;5052820;28;20098;-64
2023/12/07 09:45:11;;;;;;;20.77;15.27;;;4.40;99.90;;;;;;5052834;28;20048;-64
2023/12/07 09:47:38;;;;;;;21.60;15.95;;;4.50;99.90;;;;;;5052722;28;20059;-63
2023/12/07 09:50:06;;;;;;;20.13;14.13;;;4.60;99.90;;;;;;5052174;28;20478;-64
2023/12/07 09:52:31;;;;;;;19.67;15.18;;;4.60;99.90;;;;;;5052922;28;20367;-63
2023/12/07 09:54:59;;;;;;;20.33;15.30;;;4.70;99.90;;;;;;5052557;28;20086;-65
2023/12/07 09:57:24;;;;;;;24.25;15.63;;;4.80;99.90;;;;;;5051291;28;20488;-64
2023/12/07 09:59:50;;;;;;;21.33;14.18;;;4.90;99.90;;;;;;5052163;28;20028;-65
2023/12/07 10:02:16;;;;;;;19.42;14.05;;;4.90;99.90;;;;;;5052403;28;20061;-63
2023/12/07 10:04:41;;;;;;;19.85;14.90;;;5.00;99.90;;;;;;5052943;28;20029;-63
2023/12/07 10:07:10;;;;;;;19.70;13.50;;;5.10;99.90;;;;;;5052240;28;20051;-64
2023/12/07 10:09:40;;;;;;;19.95;14.65;;;5.10;99.90;;;;;;5052469;28;20113;-64
2023/12/07 10:12:07;;;;;;;19.40;13.40;;;5.20;99.90;;;;;;5052383;28;20029;-64
2023/12/07 10:14:33;;;;;;;21.63;13.95;;;5.20;99.90;;;;;;5052872;28;20025;-63
2023/12/07 10:17:00;;;;;;;19.25;14.00;;;5.30;99.90;;;;;;5052277;28;20031;-64
2023/12/07 10:19:27;;;;;;;17.25;12.57;;;5.40;99.90;;;;;;5051348;28;20029;-64
2023/12/07 10:21:53;;;;;;;18.40;12.93;;;5.50;99.90;;;;;;5052194;28;20462;-64
2023/12/07 10:24:21;;;;;;;20.90;13.60;;;5.70;99.90;;;;;;5052340;28;20083;-64
2023/12/07 10:26:48;;;;;;;16.77;12.52;;;5.90;99.90;;;;;;5052003;28;20053;-64
2023/12/07 10:29:14;;;;;;;15.95;12.35;;;6.00;99.90;;;;;;5052467;28;20075;-64
2023/12/07 10:31:40;;;;;;;19.23;12.88;;;6.20;99.20;;;;;;5052306;28;20032;-64
2023/12/07 10:34:06;;;;;;;17.17;12.32;;;6.30;98.60;;;;;;5052162;28;20047;-65
2023/12/07 10:36:35;;;;;;;16.30;11.80;;;6.40;97.70;;;;;;5052494;28;20036;-63
2023/12/07 10:39:01;;;;;;;18.45;12.98;;;6.40;97.10;;;;;;5051856;28;20473;-65
2023/12/07 10:41:26;;;;;;;20.30;14.18;;;6.40;96.70;;;;;;5052418;28;20029;-64
2023/12/07 10:43:54;;;;;;;18.10;12.30;;;6.30;96.30;;;;;;5052074;28;20381;-65
2023/12/07 10:46:21;;;;;;;18.35;12.77;;;6.30;96.30;;;;;;5052403;28;20029;-64
2023/12/07 10:48:59;;;;;;;17.83;12.95;;;6.30;96.50;;;;;;5052335;28;20033;-63
2023/12/07 10:52:03;;;;;;;17.65;12.27;;;6.30;96.30;;;;;;5054212;28;20029;-64
2023/12/07 10:54:39;;;;;;;18.25;12.70;;;6.30;96.30;;;;;;5055790;28;20041;-63
2023/12/07 10:57:07;;;;;;;21.35;13.85;;;6.30;96.10;;;;;;5055624;28;20484;-63
2023/12/07 10:59:35;;;;;;;18.05;13.40;;;6.30;95.80;;;;;;5056033;28;20025;-63
2023/12/07 11:02:01;;;;;;;22.73;13.00;;;6.40;95.70;;;;;;5055907;28;20492;-63
2023/12/07 11:04:27;;;;;;;18.38;13.18;;;6.30;95.50;;;;;;5056170;28;20032;-64
2023/12/07 11:06:57;;;;;;;18.73;13.43;;;6.30;95.60;;;;;;5055787;28;20029;-65
2023/12/07 11:09:28;;;;;;;19.35;13.15;;;6.40;95.90;;;;;;5056004;28;20159;-64
2023/12/07 11:12:16;;;;;;;18.38;12.80;;;6.40;95.60;;;;;;5055428;28;20025;-64
2023/12/07 11:14:42;;;;;;;20.88;12.65;;;6.40;95.60;;;;;;5055567;28;20366;-64
2023/12/07 11:17:08;;;;;;;17.48;12.50;;;6.40;95.40;;;;;;5055365;28;20037;-64
2023/12/07 11:19:36;;;;;;;19.25;12.77;;;6.50;95.40;;;;;;5055766;28;20028;-64
2023/12/07 11:22:04;;;;;;;18.88;13.27;;;6.60;95.30;;;;;;5055246;28;20112;-63
2023/12/07 11:24:30;;;;;;;18.08;13.45;;;6.70;95.00;;;;;;5055880;28;20021;-64
2023/12/07 11:26:56;;;;;;;18.65;13.07;;;6.80;94.90;;;;;;5055300;28;20021;-65
2023/12/07 11:29:25;;;;;;;16.80;12.43;;;6.90;95.20;;;;;;5055413;28;20484;-64
2023/12/07 11:31:51;;;;;;;17.08;12.75;;;7.00;94.90;;;;;;5055600;28;20036;-63
2023/12/07 11:34:37;;;;;;;17.23;12.90;;;7.10;94.00;;;;;;5053820;28;20120;-64
2023/12/07 11:37:03;;;;;;;18.73;13.25;;;7.20;93.60;;;;;;5055162;28;20021;-64
2023/12/07 11:39:34;;;;;;;15.40;12.55;;;7.30;93.40;;;;;;5055631;28;20420;-64
2023/12/07 11:42:16;;;;;;;17.17;12.15;;;7.30;92.80;;;;;;5054836;28;20036;-65
2023/12/07 11:44:46;;;;;;;15.75;11.75;;;7.30;92.60;;;;;;5055308;28;20470;-65
2023/12/07 11:47:19;;;;;;;15.30;11.60;;;7.30;92.10;;;;;;5054989;28;20217;-65
2023/12/07 11:49:46;;;;;;;12.77;9.85;;;7.30;91.80;;;;;;5055479;28;20032;-65
2023/12/07 11:52:21;;;;;;;18.38;12.55;;;7.30;91.70;;;;;;5054892;28;20035;-65
2023/12/07 11:54:48;;;;;;;19.58;12.88;;;7.40;91.50;;;;;;5055179;28;20112;-65
2023/12/07 11:57:15;;;;;;;17.80;12.13;;;7.40;91.90;;;;;;5054715;28;20029;-64
2023/12/07 11:59:43;;;;;;;16.48;11.88;;;7.40;91.40;;;;;;5054718;28;20025;-64
2023/12/07 12:02:13;;;;;;;14.40;10.20;;;7.50;91.00;;;;;;5053203;28;20512;-64
2023/12/07 12:04:40;;;;;;;15.70;11.90;;;7.50;90.70;;;;;;5054917;28;20025;-64
2023/12/07 12:07:06;;;;;;;15.23;11.02;;;7.40;90.50;;;;;;5054605;28;20029;-65
2023/12/07 12:09:33;;;;;;;19.65;11.93;;;7.40;90.80;;;;;;5055289;28;20036;-64
2023/12/07 12:12:03;;;;;;;21.95;11.68;;;7.40;90.70;;;;;;5054547;28;20155;-64
2023/12/07 12:14:28;;;;;;;16.73;11.52;;;7.40;90.60;;;;;;5054824;28;20393;-64
2023/12/07 12:16:55;;;;;;;15.73;11.70;;;7.40;90.40;;;;;;5054821;28;20031;-64
2023/12/07 12:19:22;;;;;;;15.93;11.80;;;7.30;90.20;;;;;;5054094;28;20389;-63
2023/12/07 12:21:48;;;;;;;17.70;11.63;;;7.20;90.50;;;;;;5054729;28;20044;-64
2023/12/07 12:24:13;;;;;;;19.83;12.75;;;7.10;90.70;;;;;;5054627;28;20082;-64
2023/12/07 12:26:42;;;;;;;15.55;12.30;;;7.00;90.80;;;;;;5054627;28;20025;-64
2023/12/07 12:29:08;;;;;;;16.52;12.38;;;7.00;90.90;;;;;;5054156;28;20112;-64
2023/12/07 12:31:35;;;;;;;15.77;12.00;;;6.90;90.80;;;;;;5054272;28;20489;-64
2023/12/07 12:34:01;;;;;;;21.33;12.35;;;6.80;90.80;;;;;;5054170;28;20028;-64